FSIA/SEZ METAR and TAF weather

Enter ICAO airport designator
Station Type Date Time Source
FSIA METAR 2021/05/16 00:00 UTC NOAA

FSIA 160000Z 16004KT 140V200 9999 FEW019 27/23 Q1008 NOSIG


Station Type Date Time Source
FSIA Decoded METAR 2021/05/16 00:00 UTC NOAA

Seychelles Inter-National Airport, Seychelles (FSIA) 04-40S 055-31E 3M
May 15, 2021 - 08:00 PM EDT / 2021.05.16 0000 UTC
Wind: from the SSE (160 degrees) at 5 MPH (4 KT) (direction variable):0
Visibility: greater than 7 mile(s):0
Sky conditions: mostly clear
Temperature: 80 F (27 C)
Dew Point: 73 F (23 C)
Relative Humidity: 78%
Pressure (altimeter): 29.77 in. Hg (1008 hPa)
ob: FSIA 160000Z 16004KT 140V200 9999 FEW019 27/23 Q1008 NOSIG
cycle: 0

Station Type Date Time Source
FSIA TAF 2021/05/15 18:16 UTC NOAA

TAF FSIA 151704Z 1518/1618 13012KT 9999 SCT020

Example: see airport list